createdAt,value
2018-12-20T00:01:08.805Z,7.23
2018-12-20T00:03:37.207Z,6.50
2018-12-20T00:06:04.888Z,7.17
2018-12-20T00:08:32.556Z,8.17
2018-12-20T00:11:00.084Z,6.90
2018-12-20T00:13:27.717Z,7.10
2018-12-20T00:15:55.226Z,8.23
2018-12-20T00:18:22.774Z,8.00
2018-12-20T00:20:50.417Z,8.03
2018-12-20T00:23:18.136Z,8.13
2018-12-20T00:25:45.734Z,7.67
2018-12-20T00:28:13.224Z,8.57
2018-12-20T00:30:40.860Z,7.60
2018-12-20T00:33:08.501Z,7.90
2018-12-20T00:35:36.723Z,7.63
2018-12-20T00:38:04.304Z,6.60
2018-12-20T00:40:31.965Z,7.73
2018-12-20T00:42:59.623Z,7.80
2018-12-20T00:45:27.191Z,7.07
2018-12-20T00:47:54.699Z,6.90
2018-12-20T00:50:22.194Z,6.87
2018-12-20T00:52:49.767Z,7.27
2018-12-20T00:55:17.328Z,7.43
2018-12-20T00:57:45.119Z,7.20
2018-12-20T01:00:13.010Z,7.10
2018-12-20T01:02:40.562Z,6.97
2018-12-20T01:05:08.214Z,7.07
2018-12-20T01:07:35.695Z,7.40
2018-12-20T01:10:03.832Z,6.57
2018-12-20T01:12:31.488Z,8.00
2018-12-20T01:14:59.183Z,7.57
2018-12-20T01:17:28.761Z,8.07
2018-12-20T01:19:56.532Z,7.10
2018-12-20T01:22:24.189Z,6.53
2018-12-20T01:24:51.684Z,7.10
2018-12-20T01:27:19.306Z,7.33
2018-12-20T01:29:46.927Z,6.87
2018-12-20T01:32:14.477Z,6.40
2018-12-20T01:34:42.092Z,6.80
2018-12-20T01:37:09.659Z,7.10
2018-12-20T01:39:37.309Z,7.53
2018-12-20T01:42:04.822Z,6.83
2018-12-20T01:44:32.458Z,6.60
2018-12-20T01:47:00.210Z,6.67
2018-12-20T01:49:27.757Z,6.60
2018-12-20T01:51:55.238Z,6.93
2018-12-20T01:54:22.743Z,8.10
2018-12-20T01:56:50.317Z,6.63
2018-12-20T01:59:17.888Z,6.80
2018-12-20T02:01:45.522Z,6.50
2018-12-20T02:04:13.091Z,5.90
2018-12-20T02:06:40.927Z,5.63
2018-12-20T02:09:08.668Z,5.80
2018-12-20T02:11:36.205Z,5.77
2018-12-20T02:14:03.869Z,5.83
2018-12-20T02:16:31.454Z,6.10
2018-12-20T02:18:59.037Z,5.47
2018-12-20T02:21:26.620Z,6.40
2018-12-20T02:23:54.332Z,6.30
2018-12-20T02:26:21.888Z,5.80
2018-12-20T02:28:49.776Z,6.27
2018-12-20T02:31:17.362Z,5.90
2018-12-20T02:33:45.085Z,6.07
2018-12-20T02:36:12.796Z,6.07
2018-12-20T02:38:40.422Z,5.70
2018-12-20T02:41:08.045Z,5.80
2018-12-20T02:43:35.574Z,5.60
2018-12-20T02:46:03.231Z,6.57
2018-12-20T02:48:30.865Z,5.83
2018-12-20T02:50:58.383Z,6.20
2018-12-20T02:53:25.973Z,5.80
2018-12-20T02:55:53.451Z,5.77
2018-12-20T02:58:21.263Z,6.40
2018-12-20T03:00:48.961Z,5.83
2018-12-20T03:03:16.682Z,6.40
2018-12-20T03:05:44.390Z,6.53
2018-12-20T03:08:12.108Z,6.40
2018-12-20T03:10:39.699Z,6.00
2018-12-20T03:13:07.515Z,6.43
2018-12-20T03:15:35.212Z,5.93
2018-12-20T03:18:02.936Z,5.67
2018-12-20T03:20:30.933Z,6.13
2018-12-20T03:22:58.531Z,5.87
2018-12-20T03:25:26.185Z,5.70
2018-12-20T03:27:53.806Z,5.87
2018-12-20T03:30:21.495Z,5.57
2018-12-20T03:32:49.041Z,5.87
2018-12-20T03:35:16.709Z,5.30
2018-12-20T03:37:44.409Z,5.27
2018-12-20T03:40:12.277Z,6.27
2018-12-20T03:42:40.030Z,5.40
2018-12-20T03:45:07.826Z,5.67
2018-12-20T03:47:35.476Z,5.93
2018-12-20T03:50:03.401Z,5.73
2018-12-20T03:52:31.042Z,5.80
2018-12-20T03:54:58.668Z,5.77
2018-12-20T03:57:26.289Z,5.47
2018-12-20T03:59:53.839Z,5.00
2018-12-20T04:02:23.674Z,4.90
2018-12-20T04:04:51.361Z,5.00
2018-12-20T04:07:18.972Z,6.00
2018-12-20T04:09:46.556Z,5.70
2018-12-20T04:12:14.396Z,5.20
2018-12-20T04:14:42.084Z,6.43
2018-12-20T04:17:09.751Z,5.10
2018-12-20T04:19:37.348Z,5.63
2018-12-20T04:22:04.994Z,6.00
2018-12-20T04:24:32.695Z,6.03
2018-12-20T04:27:00.323Z,5.90
2018-12-20T04:29:27.830Z,6.10
2018-12-20T04:31:55.424Z,6.60
2018-12-20T04:34:23.071Z,6.00
2018-12-20T04:36:50.634Z,6.03
2018-12-20T04:39:18.373Z,6.00
2018-12-20T04:41:46.135Z,6.07
2018-12-20T04:44:13.724Z,5.63
2018-12-20T04:46:41.235Z,5.60
2018-12-20T04:49:08.855Z,5.73
2018-12-20T04:51:36.712Z,5.77
2018-12-20T04:54:04.406Z,6.00
2018-12-20T04:56:32.636Z,5.40
2018-12-20T04:59:00.202Z,5.87
2018-12-20T05:01:27.860Z,5.83
2018-12-20T05:03:56.172Z,5.03
2018-12-20T05:06:23.962Z,5.23
2018-12-20T05:08:51.809Z,5.57
2018-12-20T05:11:19.459Z,4.80
2018-12-20T05:13:46.956Z,5.63
2018-12-20T05:16:14.577Z,5.90
2018-12-20T05:18:42.186Z,5.20
2018-12-20T05:21:09.671Z,5.10
2018-12-20T05:23:37.297Z,5.63
2018-12-20T05:26:04.861Z,5.57
2018-12-20T05:28:32.381Z,5.87
2018-12-20T05:30:59.891Z,6.03
2018-12-20T05:33:27.362Z,5.63
2018-12-20T05:35:55.024Z,5.13
2018-12-20T05:38:22.744Z,5.53
2018-12-20T05:40:51.262Z,5.67
2018-12-20T05:43:18.818Z,5.77
2018-12-20T05:45:46.446Z,5.80
2018-12-20T05:48:14.123Z,5.33
2018-12-20T05:50:41.799Z,5.47
2018-12-20T05:53:09.343Z,5.70
2018-12-20T05:55:36.831Z,5.30
2018-12-20T05:58:04.326Z,5.73
2018-12-20T06:00:31.819Z,5.43
2018-12-20T06:03:00.637Z,5.70
2018-12-20T06:05:28.858Z,5.23
2018-12-20T06:07:56.539Z,5.20
2018-12-20T06:10:24.476Z,5.73
2018-12-20T06:12:52.145Z,5.20
2018-12-20T06:15:19.630Z,5.73
2018-12-20T06:17:47.168Z,5.70
2018-12-20T06:20:14.764Z,6.30
2018-12-20T06:22:42.276Z,6.13
2018-12-20T06:25:09.758Z,5.53
2018-12-20T06:27:37.263Z,5.67
2018-12-20T06:30:05.831Z,5.73
2018-12-20T06:32:33.318Z,5.20
2018-12-20T06:35:00.812Z,4.77
2018-12-20T06:37:28.293Z,6.00
2018-12-20T06:39:55.792Z,5.63
2018-12-20T06:42:23.276Z,6.00
2018-12-20T06:44:50.754Z,5.17
2018-12-20T06:47:18.238Z,5.70
2018-12-20T06:49:45.747Z,6.03
2018-12-20T06:52:13.294Z,6.10
2018-12-20T06:54:40.768Z,5.87
2018-12-20T06:57:08.290Z,5.67
2018-12-20T06:59:35.831Z,5.83
2018-12-20T07:02:03.405Z,5.70
2018-12-20T07:04:30.915Z,6.03
2018-12-20T07:06:58.405Z,5.47
2018-12-20T07:09:25.907Z,5.60
2018-12-20T07:11:53.432Z,5.73
2018-12-20T07:14:20.916Z,5.70
2018-12-20T07:16:48.437Z,6.17
2018-12-20T07:19:15.929Z,6.00
2018-12-20T07:21:43.431Z,5.20
2018-12-20T07:24:10.934Z,5.93
2018-12-20T07:26:38.428Z,6.10
2018-12-20T07:29:05.949Z,5.60
2018-12-20T07:31:34.199Z,5.50
2018-12-20T07:34:01.783Z,5.30
2018-12-20T07:36:29.368Z,5.77
2018-12-20T07:38:56.872Z,5.40
2018-12-20T07:41:24.359Z,5.37
2018-12-20T07:43:51.853Z,6.13
2018-12-20T07:46:19.361Z,5.80
2018-12-20T07:48:46.864Z,6.53
2018-12-20T07:51:14.430Z,4.97
2018-12-20T07:53:41.997Z,5.33
2018-12-20T07:56:09.499Z,5.30
2018-12-20T07:58:37.078Z,5.73
2018-12-20T08:01:04.644Z,5.57
2018-12-20T08:03:32.646Z,4.83
2018-12-20T08:06:00.192Z,5.57
2018-12-20T08:08:27.679Z,5.33
2018-12-20T08:10:55.186Z,5.83
2018-12-20T08:13:22.684Z,5.60
2018-12-20T08:15:50.708Z,6.33
2018-12-20T08:18:18.396Z,6.83
2018-12-20T08:20:45.884Z,5.83
2018-12-20T08:23:13.448Z,6.37
2018-12-20T08:25:40.919Z,6.33
2018-12-20T08:28:08.415Z,6.20
2018-12-20T08:30:35.906Z,6.27
2018-12-20T08:33:03.659Z,5.90
2018-12-20T08:35:31.163Z,5.90
2018-12-20T08:37:58.673Z,5.53
2018-12-20T08:40:26.153Z,5.03
2018-12-20T08:42:53.636Z,5.80
2018-12-20T08:45:21.124Z,6.12
2018-12-20T08:47:48.634Z,4.87
2018-12-20T08:50:16.133Z,4.90
2018-12-20T08:52:43.638Z,4.90
2018-12-20T08:55:11.137Z,5.40
2018-12-20T08:57:38.613Z,5.00
2018-12-20T09:00:08.560Z,4.90
2018-12-20T09:02:36.200Z,5.17
2018-12-20T09:05:04.835Z,3.83
2018-12-20T09:07:32.329Z,4.40
2018-12-20T09:09:59.925Z,4.60
2018-12-20T09:12:27.398Z,4.43
2018-12-20T09:14:54.993Z,4.40
2018-12-20T09:17:22.537Z,4.43
2018-12-20T09:19:50.039Z,3.90
2018-12-20T09:22:17.550Z,3.87
2018-12-20T09:24:45.059Z,3.77
2018-12-20T09:27:12.565Z,4.77
2018-12-20T09:29:40.049Z,4.40
2018-12-20T09:32:07.541Z,3.93
2018-12-20T09:34:35.049Z,4.00
2018-12-20T09:37:02.774Z,3.90
2018-12-20T09:39:30.265Z,4.50
2018-12-20T09:41:59.431Z,3.90
2018-12-20T09:44:26.952Z,4.10
2018-12-20T09:46:56.401Z,5.03
2018-12-20T09:49:23.883Z,3.67
2018-12-20T09:51:51.371Z,3.90
2018-12-20T09:54:18.861Z,3.67
2018-12-20T09:56:46.360Z,4.27
2018-12-20T09:59:13.868Z,3.47
2018-12-20T10:01:41.341Z,3.97
2018-12-20T10:04:08.847Z,3.50
2018-12-20T10:06:37.331Z,3.70
2018-12-20T10:09:06.446Z,4.10
2018-12-20T10:11:33.929Z,3.90
2018-12-20T10:14:01.622Z,4.43
2018-12-20T10:16:29.117Z,3.73
2018-12-20T10:18:56.639Z,4.30
2018-12-20T10:21:24.121Z,4.03
2018-12-20T10:23:51.608Z,4.40
2018-12-20T10:26:19.095Z,4.20
2018-12-20T10:28:46.571Z,4.23
2018-12-20T10:31:14.074Z,3.77
2018-12-20T10:33:41.574Z,4.23
2018-12-20T10:36:09.070Z,3.53
2018-12-20T10:38:36.562Z,3.57
2018-12-20T10:41:04.051Z,4.00
2018-12-20T10:43:31.539Z,4.10
2018-12-20T10:45:59.028Z,4.50
2018-12-20T10:48:26.534Z,4.20
2018-12-20T10:50:54.019Z,3.23
2018-12-20T10:53:21.523Z,3.93
2018-12-20T10:55:49.011Z,3.73
2018-12-20T10:58:16.506Z,3.50
2018-12-20T11:00:49.784Z,4.17
2018-12-20T11:03:23.015Z,3.50
2018-12-20T11:05:56.216Z,3.20
2018-12-20T11:08:23.803Z,3.70
2018-12-20T11:10:53.263Z,4.10
2018-12-20T11:13:24.663Z,2.90
2018-12-20T11:15:52.262Z,3.93
2018-12-20T11:18:19.767Z,3.87
2018-12-20T11:20:47.263Z,3.50
2018-12-20T11:23:14.775Z,5.07
2018-12-20T11:25:42.269Z,3.77
2018-12-20T11:28:09.791Z,4.17
2018-12-20T11:30:40.524Z,3.90
2018-12-20T11:33:08.020Z,3.37
2018-12-20T11:35:35.500Z,3.30
2018-12-20T11:38:02.998Z,3.57
2018-12-20T11:40:30.503Z,4.07
2018-12-20T11:42:57.981Z,4.43
2018-12-20T11:45:25.479Z,3.90
2018-12-20T11:47:52.964Z,3.87
2018-12-20T11:50:20.442Z,3.53
2018-12-20T11:52:47.931Z,3.57
2018-12-20T11:55:15.459Z,3.90
2018-12-20T11:57:43.009Z,3.90
2018-12-20T12:00:10.563Z,4.20
2018-12-20T12:02:38.052Z,3.90
2018-12-20T12:05:05.682Z,3.40
2018-12-20T12:07:33.177Z,3.30
2018-12-20T12:10:00.655Z,3.30
2018-12-20T12:12:28.152Z,3.13
2018-12-20T12:14:55.660Z,3.43
2018-12-20T12:17:23.159Z,3.50
2018-12-20T12:19:51.556Z,3.60
2018-12-20T12:22:19.056Z,3.60
2018-12-20T12:24:46.547Z,2.97
2018-12-20T12:27:14.141Z,3.23
2018-12-20T12:29:41.634Z,3.23
2018-12-20T12:32:09.162Z,2.67
2018-12-20T12:34:36.639Z,3.07
2018-12-20T12:37:05.566Z,2.87
2018-12-20T12:39:33.083Z,3.87
2018-12-20T12:42:00.577Z,3.03
2018-12-20T12:44:28.058Z,3.10
2018-12-20T12:46:55.559Z,2.73
2018-12-20T12:49:24.107Z,2.93
2018-12-20T12:51:53.202Z,2.50
2018-12-20T12:54:21.037Z,3.83
2018-12-20T12:56:48.538Z,2.83
2018-12-20T12:59:16.042Z,2.87
2018-12-20T13:01:43.527Z,2.53
2018-12-20T13:04:11.008Z,3.43
2018-12-20T13:06:38.482Z,3.43
2018-12-20T13:09:06.240Z,2.70
2018-12-20T13:11:33.827Z,2.80
2018-12-20T13:14:01.301Z,3.33
2018-12-20T13:16:28.771Z,3.00
2018-12-20T13:18:56.260Z,2.47
2018-12-20T13:21:23.772Z,3.20
2018-12-20T13:23:51.263Z,2.87
2018-12-20T13:26:18.757Z,3.00
2018-12-20T13:28:46.789Z,3.03
2018-12-20T13:31:14.298Z,3.13
2018-12-20T13:33:41.824Z,3.47
2018-12-20T13:36:09.379Z,2.90
2018-12-20T13:38:36.871Z,2.60
2018-12-20T13:41:04.401Z,2.93
2018-12-20T13:43:31.888Z,3.30
2018-12-20T13:45:59.415Z,2.83
2018-12-20T13:48:27.143Z,3.20
2018-12-20T13:50:54.663Z,3.10
2018-12-20T13:53:22.146Z,3.07
2018-12-20T13:55:49.624Z,3.60
2018-12-20T13:58:17.139Z,3.90
2018-12-20T14:00:44.690Z,3.80
2018-12-20T14:03:12.184Z,3.57
2018-12-20T14:05:40.225Z,3.77
2018-12-20T14:08:07.713Z,3.37
2018-12-20T14:10:35.212Z,4.03
2018-12-20T14:13:02.694Z,3.90
2018-12-20T14:15:30.221Z,4.40
2018-12-20T14:17:57.725Z,4.33
2018-12-20T14:20:25.307Z,4.20
2018-12-20T14:22:52.808Z,5.23
2018-12-20T14:25:20.365Z,3.50
2018-12-20T14:27:47.860Z,3.90
2018-12-20T14:30:15.342Z,3.33
2018-12-20T14:32:42.839Z,3.47
2018-12-20T14:35:10.314Z,3.67
2018-12-20T14:37:37.878Z,3.57
2018-12-20T14:40:07.338Z,3.90
2018-12-20T14:42:34.828Z,3.90
2018-12-20T14:45:02.412Z,3.60
2018-12-20T14:47:29.916Z,4.30
2018-12-20T14:49:58.637Z,3.73
2018-12-20T14:52:26.156Z,3.67
2018-12-20T14:54:53.635Z,4.27
2018-12-20T14:57:21.146Z,3.43
2018-12-20T14:59:48.753Z,3.77
2018-12-20T15:02:16.245Z,3.60
2018-12-20T15:04:43.744Z,3.67
2018-12-20T15:07:11.242Z,2.80
2018-12-20T15:09:38.739Z,3.60
2018-12-20T15:12:06.240Z,4.43
2018-12-20T15:14:33.726Z,4.17
2018-12-20T15:17:01.204Z,4.67
2018-12-20T15:19:28.698Z,3.80
2018-12-20T15:21:56.216Z,3.83
2018-12-20T15:24:23.705Z,4.53
2018-12-20T15:26:51.209Z,4.60
2018-12-20T15:29:18.787Z,4.13
2018-12-20T15:31:53.406Z,4.63
2018-12-20T15:34:15.963Z,3.73
2018-12-20T15:36:43.460Z,4.60
2018-12-20T15:39:10.943Z,3.53
2018-12-20T15:41:38.554Z,4.67
2018-12-20T15:44:06.052Z,3.57
2018-12-20T15:46:33.547Z,3.97
2018-12-20T15:49:03.815Z,4.13
2018-12-20T15:51:32.975Z,4.23
2018-12-20T15:54:00.851Z,4.87
2018-12-20T15:56:28.364Z,4.10
2018-12-20T15:58:55.860Z,5.30
2018-12-20T16:01:23.386Z,4.07
2018-12-20T16:03:50.879Z,4.20
2018-12-20T16:06:18.537Z,4.60
2018-12-20T16:08:46.070Z,5.30
2018-12-20T16:11:13.622Z,4.03
2018-12-20T16:13:41.116Z,4.33
2018-12-20T16:16:08.621Z,4.00
2018-12-20T16:18:36.700Z,4.57
2018-12-20T16:21:04.252Z,4.10
2018-12-20T16:23:31.874Z,4.27
2018-12-20T16:25:59.361Z,4.13
2018-12-20T16:28:26.831Z,3.60
2018-12-20T16:30:54.328Z,3.93
2018-12-20T16:33:21.828Z,4.07
2018-12-20T16:35:49.324Z,3.63
2018-12-20T16:38:16.830Z,4.23
2018-12-20T16:40:44.327Z,3.73
2018-12-20T16:43:11.825Z,3.33
2018-12-20T16:45:41.046Z,3.77
2018-12-20T16:48:08.848Z,3.07
2018-12-20T16:50:36.320Z,3.13
2018-12-20T16:53:03.817Z,4.03
2018-12-20T16:55:31.298Z,3.33
2018-12-20T16:57:58.802Z,3.40
2018-12-20T17:00:27.248Z,3.37
2018-12-20T17:02:54.727Z,4.20
2018-12-20T17:05:22.220Z,3.80
2018-12-20T17:07:49.723Z,3.90
2018-12-20T17:10:17.202Z,3.87
2018-12-20T17:12:45.237Z,3.47
2018-12-20T17:15:12.923Z,4.03
2018-12-20T17:17:40.415Z,4.47
2018-12-20T17:20:07.989Z,3.93
2018-12-20T17:22:35.478Z,4.17
2018-12-20T17:25:03.962Z,3.90
2018-12-20T17:27:31.446Z,4.30
2018-12-20T17:29:58.929Z,4.10
2018-12-20T17:32:26.439Z,4.63
2018-12-20T17:34:53.947Z,4.90
2018-12-20T17:37:21.431Z,5.67
2018-12-20T17:39:48.936Z,5.33
2018-12-20T17:42:16.509Z,5.03
2018-12-20T17:44:44.031Z,5.50
2018-12-20T17:47:11.505Z,4.77
2018-12-20T17:49:39.033Z,4.70
2018-12-20T17:52:06.532Z,5.43
2018-12-20T17:54:34.032Z,4.70
2018-12-20T17:57:01.551Z,5.37
2018-12-20T17:59:29.063Z,4.90
2018-12-20T18:01:56.611Z,5.33
2018-12-20T18:04:24.206Z,5.27
2018-12-20T18:06:51.733Z,5.60
2018-12-20T18:09:19.671Z,5.77
2018-12-20T18:11:47.159Z,5.80
2018-12-20T18:14:14.669Z,5.90
2018-12-20T18:16:42.162Z,5.40
2018-12-20T18:19:09.654Z,5.40
2018-12-20T18:21:37.158Z,4.87
2018-12-20T18:24:05.209Z,5.47
2018-12-20T18:26:32.715Z,5.17
2018-12-20T18:29:00.229Z,5.43
2018-12-20T18:31:27.754Z,5.00
2018-12-20T18:33:55.286Z,5.20
2018-12-20T18:36:22.783Z,5.50
2018-12-20T18:38:50.272Z,4.70
2018-12-20T18:41:17.864Z,6.30
2018-12-20T18:43:45.370Z,4.43
2018-12-20T18:46:12.861Z,5.20
2018-12-20T18:48:40.379Z,6.10
2018-12-20T18:51:07.886Z,6.20
2018-12-20T18:53:35.360Z,6.03
2018-12-20T18:56:02.967Z,5.00
2018-12-20T18:58:30.479Z,5.57
2018-12-20T19:00:57.977Z,4.37
2018-12-20T19:03:25.521Z,5.13
2018-12-20T19:05:53.209Z,5.67
2018-12-20T19:08:20.744Z,5.90
2018-12-20T19:10:48.325Z,5.20
2018-12-20T19:13:15.844Z,5.13
2018-12-20T19:15:43.322Z,4.97
2018-12-20T19:18:10.909Z,4.93
2018-12-20T19:20:38.470Z,5.80
2018-12-20T19:23:05.964Z,5.23
2018-12-20T19:25:33.527Z,5.20
2018-12-20T19:28:01.012Z,5.60
2018-12-20T19:30:28.542Z,5.43
2018-12-20T19:32:56.036Z,6.00
2018-12-20T19:35:23.545Z,5.03
2018-12-20T19:37:51.047Z,6.47
2018-12-20T19:40:18.605Z,4.67
2018-12-20T19:42:46.138Z,5.23
2018-12-20T19:45:13.790Z,5.20
2018-12-20T19:47:41.295Z,4.77
2018-12-20T19:50:08.819Z,4.77
2018-12-20T19:52:36.305Z,4.63
2018-12-20T19:55:04.843Z,4.83
2018-12-20T19:57:32.334Z,3.67
2018-12-20T19:59:59.862Z,4.90
2018-12-20T20:02:27.364Z,4.10
2018-12-20T20:04:54.920Z,3.90
2018-12-20T20:07:23.973Z,4.37
2018-12-20T20:09:51.713Z,3.83
2018-12-20T20:12:19.220Z,4.40
2018-12-20T20:14:46.728Z,3.70
2018-12-20T20:17:14.279Z,3.90
2018-12-20T20:19:41.779Z,3.80
2018-12-20T20:22:09.290Z,3.97
2018-12-20T20:24:36.834Z,3.30
2018-12-20T20:27:04.331Z,2.87
2018-12-20T20:29:31.837Z,3.23
2018-12-20T20:31:59.326Z,3.43
2018-12-20T20:34:26.857Z,2.70
2018-12-20T20:36:54.363Z,3.63
2018-12-20T20:39:21.835Z,3.60
2018-12-20T20:41:49.367Z,3.27
2018-12-20T20:44:16.910Z,3.43
2018-12-20T20:46:44.432Z,3.30
2018-12-20T20:49:11.953Z,3.97
2018-12-20T20:51:39.439Z,3.13
2018-12-20T20:54:06.969Z,3.30
2018-12-20T20:56:35.298Z,2.87
2018-12-20T20:59:02.870Z,3.13
2018-12-20T21:01:30.348Z,3.23
2018-12-20T21:04:03.452Z,3.07
2018-12-20T21:06:27.443Z,3.30
2018-12-20T21:08:54.933Z,4.00
2018-12-20T21:11:22.432Z,4.47
2018-12-20T21:13:49.962Z,4.63
2018-12-20T21:16:17.478Z,5.10
2018-12-20T21:18:45.036Z,5.50
2018-12-20T21:21:12.539Z,4.77
2018-12-20T21:23:40.019Z,6.20
2018-12-20T21:26:07.498Z,5.30
2018-12-20T21:28:35.002Z,6.23
2018-12-20T21:31:02.552Z,5.73
2018-12-20T21:33:30.226Z,6.57
2018-12-20T21:35:57.917Z,7.50
2018-12-20T21:38:25.405Z,5.83
2018-12-20T21:40:52.894Z,6.80
2018-12-20T21:43:20.505Z,6.33
2018-12-20T21:45:48.016Z,7.10
2018-12-20T21:48:15.513Z,5.83
2018-12-20T21:50:42.998Z,7.73
2018-12-20T21:53:10.558Z,7.27
2018-12-20T21:55:38.066Z,8.30
2018-12-20T21:58:05.644Z,7.73
2018-12-20T22:00:33.958Z,8.43
2018-12-20T22:03:01.451Z,7.47
2018-12-20T22:05:28.936Z,8.03
2018-12-20T22:07:56.457Z,8.53
2018-12-20T22:10:23.976Z,8.90
2018-12-20T22:12:51.454Z,7.53
2018-12-20T22:15:19.002Z,8.43
2018-12-20T22:17:46.602Z,7.03
2018-12-20T22:20:14.947Z,7.10
2018-12-20T22:22:42.444Z,5.77
2018-12-20T22:25:09.931Z,6.40
2018-12-20T22:27:37.407Z,5.53
2018-12-20T22:30:07.086Z,5.97
2018-12-20T22:32:34.587Z,5.67
2018-12-20T22:35:02.198Z,5.80
2018-12-20T22:37:29.677Z,4.87
2018-12-20T22:39:57.153Z,5.23
2018-12-20T22:42:24.868Z,5.90
2018-12-20T22:44:52.386Z,5.43
2018-12-20T22:47:19.877Z,5.37
2018-12-20T22:49:47.402Z,4.37
2018-12-20T22:52:14.903Z,4.40
2018-12-20T22:54:42.383Z,4.10
2018-12-20T22:57:09.864Z,4.77
2018-12-20T22:59:37.436Z,3.80
2018-12-20T23:02:05.023Z,3.73
2018-12-20T23:04:32.645Z,3.70
2018-12-20T23:07:00.276Z,3.60
2018-12-20T23:09:27.784Z,3.90
2018-12-20T23:11:55.258Z,3.67
2018-12-20T23:14:22.747Z,3.53
2018-12-20T23:16:53.818Z,3.20
2018-12-20T23:19:19.766Z,3.60
2018-12-20T23:21:47.332Z,3.33
2018-12-20T23:24:14.810Z,4.70
2018-12-20T23:26:42.351Z,3.80
2018-12-20T23:29:09.862Z,3.53
2018-12-20T23:31:37.330Z,2.80
2018-12-20T23:34:04.846Z,2.80
2018-12-20T23:36:32.351Z,3.40
2018-12-20T23:38:59.871Z,3.23
2018-12-20T23:41:27.364Z,4.07
2018-12-20T23:43:54.869Z,3.07
2018-12-20T23:46:22.361Z,3.33
2018-12-20T23:48:49.860Z,2.53
2018-12-20T23:51:17.350Z,2.47
2018-12-20T23:53:44.859Z,2.47
2018-12-20T23:56:12.355Z,3.10
2018-12-20T23:58:39.843Z,3.10
